createdAt,value
2022-08-05T00:01:27.747Z,24.55
2022-08-05T00:06:33.161Z,23.77
2022-08-05T00:11:48.463Z,24.23
2022-08-05T00:16:53.963Z,24.45
2022-08-05T00:21:56.792Z,27.77
2022-08-05T00:27:00.804Z,27.23
2022-08-05T00:32:12.551Z,24.13
2022-08-05T00:37:17.495Z,25.60
2022-08-05T00:42:40.171Z,19.48
2022-08-05T00:47:56.926Z,24.30
2022-08-05T00:53:01.584Z,31.52
2022-08-05T00:58:04.637Z,25.48
2022-08-05T01:03:08.131Z,24.83
2022-08-05T01:08:39.950Z,26.10
2022-08-05T01:13:57.983Z,26.05
2022-08-05T01:19:14.290Z,23.08
2022-08-05T01:24:36.112Z,23.27
2022-08-05T01:29:45.583Z,29.08
2022-08-05T01:34:56.900Z,27.55
2022-08-05T01:40:04.130Z,22.33
2022-08-05T01:45:08.408Z,30.35
2022-08-05T01:50:38.200Z,31.52
2022-08-05T01:55:46.430Z,30.05
2022-08-05T02:00:52.295Z,23.45
2022-08-05T02:05:59.627Z,25.83
2022-08-05T02:11:11.823Z,22.98
2022-08-05T02:16:34.496Z,27.38
2022-08-05T02:21:46.773Z,21.98
2022-08-05T02:26:56.057Z,25.05
2022-08-05T02:31:59.536Z,24.33
2022-08-05T02:37:10.093Z,24.00
2022-08-05T02:42:22.550Z,33.97
2022-08-05T02:47:58.602Z,22.25
2022-08-05T02:52:59.476Z,22.30
2022-08-05T02:58:10.790Z,27.13
2022-08-05T03:03:19.653Z,21.95
2022-08-05T03:08:29.881Z,26.50
2022-08-05T03:13:51.457Z,25.33
2022-08-05T03:18:55.498Z,26.13
2022-08-05T03:23:58.876Z,30.38
2022-08-05T03:29:02.078Z,32.13
2022-08-05T03:34:06.769Z,26.42
2022-08-05T03:39:26.682Z,33.90
2022-08-05T03:44:29.770Z,29.38
2022-08-05T03:49:51.353Z,29.05
2022-08-05T03:56:05.471Z,27.73
2022-08-05T04:00:26.748Z,32.50
2022-08-05T04:05:34.883Z,28.67
2022-08-05T04:10:38.476Z,24.88
2022-08-05T04:15:52.613Z,27.85
2022-08-05T04:21:04.785Z,27.17
2022-08-05T04:26:07.434Z,29.02
2022-08-05T04:31:10.489Z,22.13
2022-08-05T04:36:45.287Z,22.13
2022-08-05T04:41:38.862Z,28.35
2022-08-05T04:46:41.555Z,24.10
2022-08-05T04:51:49.598Z,23.77
2022-08-05T04:57:03.350Z,22.20
2022-08-05T05:02:37.136Z,27.50
2022-08-05T05:07:32.395Z,24.13
2022-08-05T05:12:36.822Z,22.90
2022-08-05T05:17:56.949Z,19.23
2022-08-05T05:23:08.187Z,21.60
2022-08-05T05:33:17.340Z,14.65
2022-08-05T05:38:22.671Z,13.40
2022-08-05T05:43:57.084Z,17.73
2022-08-05T05:48:53.294Z,12.52
2022-08-05T05:53:59.544Z,14.05
2022-08-05T05:59:05.575Z,12.10
2022-08-05T06:04:11.415Z,16.42
2022-08-05T06:09:17.601Z,14.77
2022-08-05T06:14:30.864Z,12.10
2022-08-05T06:19:35.442Z,16.85
2022-08-05T06:24:48.366Z,10.73
2022-08-05T06:30:04.405Z,16.42
2022-08-05T06:35:15.417Z,17.92
2022-08-05T06:40:27.846Z,9.63
2022-08-05T06:45:44.935Z,15.68
2022-08-05T06:50:53.513Z,10.77
2022-08-05T06:55:59.029Z,7.63
2022-08-05T07:01:03.132Z,13.50
2022-08-05T07:06:14.344Z,7.07
2022-08-05T07:11:22.442Z,12.32
2022-08-05T07:17:56.523Z,9.30
2022-08-05T07:22:12.072Z,15.25
2022-08-05T07:27:18.569Z,8.05
2022-08-05T07:32:24.259Z,12.00
2022-08-05T07:37:37.473Z,19.33
2022-08-05T07:42:42.070Z,11.07
2022-08-05T07:47:46.986Z,12.35
2022-08-05T07:52:49.881Z,14.85
2022-08-05T07:58:02.470Z,9.25
2022-08-05T08:03:14.921Z,7.18
2022-08-05T08:08:20.074Z,8.40
2022-08-05T08:13:29.354Z,12.68
2022-08-05T08:18:32.265Z,9.02
2022-08-05T08:24:02.013Z,7.60
2022-08-05T08:29:21.490Z,10.70
2022-08-05T08:34:30.379Z,7.47
2022-08-05T08:39:37.424Z,7.95
2022-08-05T08:45:23.752Z,10.23
2022-08-05T08:50:22.689Z,6.65
2022-08-05T08:56:02.811Z,6.65
2022-08-05T09:00:53.190Z,9.55
2022-08-05T09:06:08.881Z,6.70
2022-08-05T09:11:15.260Z,10.43
2022-08-05T09:16:18.066Z,7.57
2022-08-05T09:22:18.534Z,8.88
2022-08-05T09:26:51.837Z,11.73
2022-08-05T09:32:40.886Z,10.77
2022-08-05T09:38:12.289Z,10.32
2022-08-05T09:42:52.422Z,9.60
2022-08-05T09:47:56.803Z,8.18
2022-08-05T09:53:00.334Z,7.88
2022-08-05T09:58:11.796Z,8.35
2022-08-05T10:03:14.430Z,8.48
2022-08-05T10:08:37.625Z,6.68
2022-08-05T10:13:45.676Z,8.50
2022-08-05T10:18:51.461Z,9.55
2022-08-05T10:23:59.579Z,8.77
2022-08-05T10:29:03.572Z,9.65
2022-08-05T10:34:08.100Z,7.45
2022-08-05T10:39:24.991Z,8.60
2022-08-05T10:44:45.843Z,14.85
2022-08-05T10:50:31.980Z,9.90
2022-08-05T10:55:25.473Z,9.02
2022-08-05T11:00:32.442Z,9.93
2022-08-05T11:05:36.889Z,8.95
2022-08-05T11:10:50.449Z,11.65
2022-08-05T11:16:22.945Z,11.07
2022-08-05T11:21:48.908Z,10.20
2022-08-05T11:27:45.726Z,8.57
2022-08-05T11:33:48.904Z,8.80
2022-08-05T11:38:57.824Z,9.15
2022-08-05T11:44:08.379Z,9.23
2022-08-05T11:49:16.344Z,9.38
2022-08-05T11:54:32.660Z,12.57
2022-08-05T11:59:41.393Z,7.93
2022-08-05T12:04:58.932Z,10.02
2022-08-05T12:10:09.329Z,9.97
2022-08-05T12:15:38.353Z,11.15
2022-08-05T12:20:42.733Z,11.05
2022-08-05T12:25:56.767Z,11.65
2022-08-05T12:31:02.395Z,10.02
2022-08-05T12:36:07.960Z,11.48
2022-08-05T12:41:16.305Z,14.68
2022-08-05T12:46:29.021Z,8.57
2022-08-05T12:52:12.321Z,8.35
2022-08-05T12:57:09.637Z,12.15
2022-08-05T13:02:17.079Z,11.43
2022-08-05T13:07:55.815Z,8.93
2022-08-05T13:12:57.232Z,12.77
2022-08-05T13:18:00.630Z,8.55
2022-08-05T13:23:07.273Z,8.50
2022-08-05T13:28:11.476Z,9.85
2022-08-05T13:34:22.859Z,10.82
2022-08-05T13:38:42.205Z,8.00
2022-08-05T13:43:54.926Z,8.00
2022-08-05T13:49:00.944Z,12.95
2022-08-05T13:54:11.726Z,15.05
2022-08-05T13:59:20.212Z,12.40
2022-08-05T14:04:42.896Z,11.05
2022-08-05T14:09:52.977Z,8.18
2022-08-05T14:14:56.095Z,8.70
2022-08-05T14:20:06.804Z,10.35
2022-08-05T14:25:21.993Z,10.40
2022-08-05T14:30:26.648Z,8.18
2022-08-05T14:35:37.247Z,9.82
2022-08-05T14:40:53.609Z,10.13
2022-08-05T14:45:56.228Z,12.18
2022-08-05T14:50:59.028Z,13.98
2022-08-05T14:56:06.441Z,10.13
2022-08-05T15:01:16.088Z,8.32
2022-08-05T15:06:19.615Z,8.93
2022-08-05T15:11:52.611Z,9.02
2022-08-05T15:16:56.252Z,13.32
2022-08-05T15:22:01.313Z,12.00
2022-08-05T15:27:04.316Z,14.82
2022-08-05T15:32:12.264Z,9.25
2022-08-05T15:37:19.388Z,13.80
2022-08-05T15:42:56.176Z,27.33
2022-08-05T15:48:02.961Z,22.67
2022-08-05T15:53:06.364Z,31.50
2022-08-05T15:58:16.484Z,18.70
2022-08-05T16:03:19.652Z,20.00
2022-08-05T16:08:22.317Z,14.27
2022-08-05T16:13:34.088Z,12.55
2022-08-05T16:23:58.049Z,15.45
2022-08-05T16:29:04.231Z,12.27
2022-08-05T16:34:11.179Z,10.32
2022-08-05T16:39:14.422Z,11.20
2022-08-05T16:44:18.212Z,10.32
2022-08-05T16:49:24.074Z,9.70
2022-08-05T16:54:31.957Z,10.95
2022-08-05T16:59:35.756Z,13.35
2022-08-05T17:04:58.542Z,10.27
2022-08-05T17:10:01.473Z,11.20
2022-08-05T17:15:07.685Z,11.63
2022-08-05T17:20:14.835Z,14.98
2022-08-05T17:25:22.499Z,14.15
2022-08-05T17:30:42.382Z,11.15
2022-08-05T17:36:07.998Z,11.52
2022-08-05T17:42:17.323Z,14.85
2022-08-05T17:46:36.127Z,20.15
2022-08-05T17:51:40.162Z,16.45
2022-08-05T17:56:44.710Z,16.02
2022-08-05T18:01:51.705Z,17.17
2022-08-05T18:06:54.633Z,16.75
2022-08-05T18:12:03.446Z,17.00
2022-08-05T18:17:06.692Z,20.70
2022-08-05T18:22:36.469Z,22.42
2022-08-05T18:27:52.874Z,21.33
2022-08-05T18:33:00.158Z,23.70
2022-08-05T18:38:04.125Z,20.25
2022-08-05T18:43:09.215Z,17.58
2022-08-05T18:48:30.299Z,12.75
2022-08-05T18:53:34.667Z,14.43
2022-08-05T19:03:55.070Z,13.82
2022-08-05T19:08:58.902Z,15.82
2022-08-05T19:14:20.057Z,22.48
2022-08-05T19:19:27.478Z,21.88
2022-08-05T19:24:34.806Z,15.00
2022-08-05T19:29:38.804Z,17.63
2022-08-05T19:34:41.837Z,16.20
2022-08-05T19:39:51.060Z,17.13
2022-08-05T19:44:54.681Z,17.80
2022-08-05T19:50:01.079Z,19.05
2022-08-05T19:55:07.285Z,24.95
2022-08-05T20:00:27.449Z,19.40
2022-08-05T20:05:43.160Z,25.30
2022-08-05T20:10:53.597Z,20.00
2022-08-05T20:15:56.931Z,34.58
2022-08-05T20:21:00.434Z,27.40
2022-08-05T20:26:04.023Z,26.73
2022-08-05T20:31:08.267Z,29.17
2022-08-05T20:36:11.448Z,26.00
2022-08-05T20:41:23.630Z,24.67
2022-08-05T20:46:30.212Z,26.88
2022-08-05T20:51:32.889Z,21.17
2022-08-05T20:56:42.169Z,25.65
2022-08-05T21:01:45.343Z,23.90
2022-08-05T21:06:48.087Z,18.17
2022-08-05T21:12:09.643Z,28.33
2022-08-05T21:17:14.315Z,29.02
2022-08-05T21:22:17.711Z,25.05
2022-08-05T21:27:27.493Z,26.63
2022-08-05T21:32:30.522Z,21.63
2022-08-05T21:37:33.992Z,23.10
2022-08-05T21:42:44.013Z,24.00
2022-08-05T21:47:57.208Z,21.88
2022-08-05T21:53:04.738Z,28.27
2022-08-05T21:58:19.975Z,28.88
2022-08-05T22:03:48.328Z,28.98
2022-08-05T22:08:52.746Z,23.95
2022-08-05T22:14:31.433Z,24.50
2022-08-05T22:20:01.701Z,22.95
2022-08-05T22:24:59.673Z,25.42
2022-08-05T22:30:02.539Z,25.23
2022-08-05T22:35:07.489Z,33.63
2022-08-05T22:40:10.335Z,20.83
2022-08-05T22:45:19.808Z,28.33
2022-08-05T22:50:26.713Z,20.30
2022-08-05T22:55:37.112Z,29.30
2022-08-05T23:00:53.129Z,23.23
2022-08-05T23:05:59.946Z,31.02
2022-08-05T23:11:03.773Z,35.20
2022-08-05T23:16:06.649Z,28.10
2022-08-05T23:21:11.147Z,29.35
2022-08-05T23:26:20.078Z,29.23
2022-08-05T23:31:24.398Z,33.08
2022-08-05T23:36:28.366Z,21.13
2022-08-05T23:41:48.450Z,21.50
2022-08-05T23:46:52.340Z,25.55
2022-08-05T23:52:13.481Z,28.15
2022-08-05T23:57:19.025Z,28.77
